sensor_id;sensor_type;location;lat;lon;timestamp;P1;durP1;ratioP1;P2;durP2;ratioP2
41480;SDS011;27217;51.220;5.308;2023-03-14T00:01:54;12.80;;;1.58;;
41480;SDS011;27217;51.220;5.308;2023-03-14T00:04:20;7.57;;;1.38;;
41480;SDS011;27217;51.220;5.308;2023-03-14T00:06:46;9.23;;;1.17;;
41480;SDS011;27217;51.220;5.308;2023-03-14T00:09:13;11.35;;;1.65;;
41480;SDS011;27217;51.220;5.308;2023-03-14T00:11:38;5.38;;;1.02;;
41480;SDS011;27217;51.220;5.308;2023-03-14T00:14:05;5.78;;;1.42;;
41480;SDS011;27217;51.220;5.308;2023-03-14T00:16:31;5.72;;;1.25;;
41480;SDS011;27217;51.220;5.308;2023-03-14T00:19:00;13.32;;;1.10;;
41480;SDS011;27217;51.220;5.308;2023-03-14T00:21:26;4.82;;;0.95;;
41480;SDS011;27217;51.220;5.308;2023-03-14T00:23:52;4.63;;;1.15;;
41480;SDS011;27217;51.220;5.308;2023-03-14T00:26:19;5.88;;;0.90;;
41480;SDS011;27217;51.220;5.308;2023-03-14T00:28:47;4.97;;;0.93;;
41480;SDS011;27217;51.220;5.308;2023-03-14T00:31:17;8.25;;;1.25;;
41480;SDS011;27217;51.220;5.308;2023-03-14T00:33:43;11.63;;;1.13;;
41480;SDS011;27217;51.220;5.308;2023-03-14T00:36:11;4.22;;;0.82;;
41480;SDS011;27217;51.220;5.308;2023-03-14T00:38:39;5.82;;;0.75;;
41480;SDS011;27217;51.220;5.308;2023-03-14T00:41:07;7.35;;;1.20;;
41480;SDS011;27217;51.220;5.308;2023-03-14T00:43:35;6.72;;;1.02;;
41480;SDS011;27217;51.220;5.308;2023-03-14T00:46:02;6.63;;;1.20;;
41480;SDS011;27217;51.220;5.308;2023-03-14T00:48:29;5.80;;;1.00;;
41480;SDS011;27217;51.220;5.308;2023-03-14T00:50:54;4.22;;;0.77;;
41480;SDS011;27217;51.220;5.308;2023-03-14T00:53:20;9.60;;;1.08;;
41480;SDS011;27217;51.220;5.308;2023-03-14T00:55:46;5.10;;;0.70;;
41480;SDS011;27217;51.220;5.308;2023-03-14T00:58:13;6.40;;;1.88;;
41480;SDS011;27217;51.220;5.308;2023-03-14T01:00:41;5.85;;;1.23;;
41480;SDS011;27217;51.220;5.308;2023-03-14T01:03:07;11.45;;;1.63;;
41480;SDS011;27217;51.220;5.308;2023-03-14T01:05:34;6.22;;;1.33;;
41480;SDS011;27217;51.220;5.308;2023-03-14T01:08:00;4.80;;;0.93;;
41480;SDS011;27217;51.220;5.308;2023-03-14T01:10:26;8.98;;;1.55;;
41480;SDS011;27217;51.220;5.308;2023-03-14T01:12:52;3.83;;;1.20;;
41480;SDS011;27217;51.220;5.308;2023-03-14T01:15:18;3.88;;;0.90;;
41480;SDS011;27217;51.220;5.308;2023-03-14T01:17:44;11.35;;;1.17;;
41480;SDS011;27217;51.220;5.308;2023-03-14T01:20:11;8.90;;;1.75;;
41480;SDS011;27217;51.220;5.308;2023-03-14T01:22:39;6.03;;;1.00;;
41480;SDS011;27217;51.220;5.308;2023-03-14T01:25:06;8.00;;;1.52;;
41480;SDS011;27217;51.220;5.308;2023-03-14T01:27:33;5.93;;;1.42;;
41480;SDS011;27217;51.220;5.308;2023-03-14T01:30:00;5.65;;;1.10;;
41480;SDS011;27217;51.220;5.308;2023-03-14T01:32:27;8.05;;;1.10;;
41480;SDS011;27217;51.220;5.308;2023-03-14T01:34:52;10.02;;;1.95;;
41480;SDS011;27217;51.220;5.308;2023-03-14T01:37:19;9.13;;;2.58;;
41480;SDS011;27217;51.220;5.308;2023-03-14T01:39:46;8.43;;;0.85;;
41480;SDS011;27217;51.220;5.308;2023-03-14T01:42:13;15.98;;;2.03;;
41480;SDS011;27217;51.220;5.308;2023-03-14T01:47:17;7.25;;;1.60;;
41480;SDS011;27217;51.220;5.308;2023-03-14T01:49:43;11.95;;;1.92;;
41480;SDS011;27217;51.220;5.308;2023-03-14T01:52:19;5.57;;;1.08;;
41480;SDS011;27217;51.220;5.308;2023-03-14T01:54:51;12.57;;;2.28;;
41480;SDS011;27217;51.220;5.308;2023-03-14T01:59:54;8.63;;;1.38;;
41480;SDS011;27217;51.220;5.308;2023-03-14T02:02:33;12.68;;;2.40;;
41480;SDS011;27217;51.220;5.308;2023-03-14T02:05:00;12.05;;;1.85;;
41480;SDS011;27217;51.220;5.308;2023-03-14T02:07:32;8.25;;;1.50;;
41480;SDS011;27217;51.220;5.308;2023-03-14T02:10:13;13.15;;;2.25;;
41480;SDS011;27217;51.220;5.308;2023-03-14T02:12:41;14.52;;;2.50;;
41480;SDS011;27217;51.220;5.308;2023-03-14T02:15:07;13.32;;;2.20;;
41480;SDS011;27217;51.220;5.308;2023-03-14T02:17:34;9.77;;;2.03;;
41480;SDS011;27217;51.220;5.308;2023-03-14T02:20:10;10.95;;;1.45;;
41480;SDS011;27217;51.220;5.308;2023-03-14T02:22:40;22.80;;;2.05;;
41480;SDS011;27217;51.220;5.308;2023-03-14T02:27:54;9.68;;;1.70;;
41480;SDS011;27217;51.220;5.308;2023-03-14T02:30:21;14.02;;;2.10;;
41480;SDS011;27217;51.220;5.308;2023-03-14T02:33:08;5.97;;;1.48;;
41480;SDS011;27217;51.220;5.308;2023-03-14T02:38:31;13.52;;;1.95;;
41480;SDS011;27217;51.220;5.308;2023-03-14T02:40:58;10.48;;;1.60;;
41480;SDS011;27217;51.220;5.308;2023-03-14T02:43:24;11.20;;;2.08;;
41480;SDS011;27217;51.220;5.308;2023-03-14T02:45:50;15.30;;;2.55;;
41480;SDS011;27217;51.220;5.308;2023-03-14T02:48:21;8.70;;;1.73;;
41480;SDS011;27217;51.220;5.308;2023-03-14T02:50:48;13.88;;;2.53;;
41480;SDS011;27217;51.220;5.308;2023-03-14T02:53:17;22.45;;;1.80;;
41480;SDS011;27217;51.220;5.308;2023-03-14T02:55:47;13.63;;;1.93;;
41480;SDS011;27217;51.220;5.308;2023-03-14T02:58:14;13.52;;;1.85;;
41480;SDS011;27217;51.220;5.308;2023-03-14T03:00:40;7.90;;;1.38;;
41480;SDS011;27217;51.220;5.308;2023-03-14T03:03:09;8.07;;;1.38;;
41480;SDS011;27217;51.220;5.308;2023-03-14T03:05:35;8.85;;;1.92;;
41480;SDS011;27217;51.220;5.308;2023-03-14T03:08:01;8.20;;;1.67;;
41480;SDS011;27217;51.220;5.308;2023-03-14T03:10:28;7.90;;;1.58;;
41480;SDS011;27217;51.220;5.308;2023-03-14T03:12:54;13.60;;;1.67;;
41480;SDS011;27217;51.220;5.308;2023-03-14T03:15:20;7.85;;;1.48;;
41480;SDS011;27217;51.220;5.308;2023-03-14T03:17:47;6.68;;;1.20;;
41480;SDS011;27217;51.220;5.308;2023-03-14T03:20:12;8.88;;;1.15;;
41480;SDS011;27217;51.220;5.308;2023-03-14T03:22:38;4.25;;;1.05;;
41480;SDS011;27217;51.220;5.308;2023-03-14T03:25:05;12.98;;;1.60;;
41480;SDS011;27217;51.220;5.308;2023-03-14T03:27:33;3.25;;;1.27;;
41480;SDS011;27217;51.220;5.308;2023-03-14T03:30:00;7.75;;;1.60;;
41480;SDS011;27217;51.220;5.308;2023-03-14T03:32:26;7.90;;;0.82;;
41480;SDS011;27217;51.220;5.308;2023-03-14T03:34:52;8.57;;;1.02;;
41480;SDS011;27217;51.220;5.308;2023-03-14T03:37:18;4.50;;;0.90;;
41480;SDS011;27217;51.220;5.308;2023-03-14T03:39:45;3.70;;;0.68;;
41480;SDS011;27217;51.220;5.308;2023-03-14T03:42:10;8.73;;;1.15;;
41480;SDS011;27217;51.220;5.308;2023-03-14T03:44:37;2.28;;;1.05;;
41480;SDS011;27217;51.220;5.308;2023-03-14T03:47:03;2.97;;;0.63;;
41480;SDS011;27217;51.220;5.308;2023-03-14T03:49:29;9.50;;;1.10;;
41480;SDS011;27217;51.220;5.308;2023-03-14T03:51:56;7.65;;;1.00;;
41480;SDS011;27217;51.220;5.308;2023-03-14T03:54:22;9.98;;;1.48;;
41480;SDS011;27217;51.220;5.308;2023-03-14T03:56:48;8.00;;;2.10;;
41480;SDS011;27217;51.220;5.308;2023-03-14T03:59:15;6.18;;;2.05;;
41480;SDS011;27217;51.220;5.308;2023-03-14T04:01:41;6.00;;;1.67;;
41480;SDS011;27217;51.220;5.308;2023-03-14T04:04:07;5.07;;;2.20;;
41480;SDS011;27217;51.220;5.308;2023-03-14T04:06:33;6.07;;;2.15;;
41480;SDS011;27217;51.220;5.308;2023-03-14T04:09:00;9.70;;;1.83;;
41480;SDS011;27217;51.220;5.308;2023-03-14T04:11:26;6.45;;;1.80;;
41480;SDS011;27217;51.220;5.308;2023-03-14T04:13:51;7.07;;;1.73;;
41480;SDS011;27217;51.220;5.308;2023-03-14T04:16:19;3.00;;;1.00;;
41480;SDS011;27217;51.220;5.308;2023-03-14T04:18:50;7.80;;;2.00;;
41480;SDS011;27217;51.220;5.308;2023-03-14T04:21:16;8.10;;;1.77;;
41480;SDS011;27217;51.220;5.308;2023-03-14T04:23:42;7.90;;;1.70;;
41480;SDS011;27217;51.220;5.308;2023-03-14T04:26:07;12.02;;;2.58;;
41480;SDS011;27217;51.220;5.308;2023-03-14T04:28:34;8.85;;;2.53;;
41480;SDS011;27217;51.220;5.308;2023-03-14T04:31:16;9.88;;;3.35;;
41480;SDS011;27217;51.220;5.308;2023-03-14T04:33:44;8.65;;;3.00;;
41480;SDS011;27217;51.220;5.308;2023-03-14T04:36:10;9.50;;;2.75;;
41480;SDS011;27217;51.220;5.308;2023-03-14T04:38:36;15.13;;;3.13;;
41480;SDS011;27217;51.220;5.308;2023-03-14T04:41:02;12.95;;;3.40;;
41480;SDS011;27217;51.220;5.308;2023-03-14T04:43:28;15.75;;;4.32;;
41480;SDS011;27217;51.220;5.308;2023-03-14T04:45:55;12.60;;;3.75;;
41480;SDS011;27217;51.220;5.308;2023-03-14T04:48:22;11.75;;;4.03;;
41480;SDS011;27217;51.220;5.308;2023-03-14T04:50:50;12.18;;;4.25;;
41480;SDS011;27217;51.220;5.308;2023-03-14T04:53:17;12.82;;;4.68;;
41480;SDS011;27217;51.220;5.308;2023-03-14T04:55:54;15.57;;;4.60;;
41480;SDS011;27217;51.220;5.308;2023-03-14T04:58:21;10.23;;;4.20;;
41480;SDS011;27217;51.220;5.308;2023-03-14T05:00:48;15.60;;;4.35;;
41480;SDS011;27217;51.220;5.308;2023-03-14T05:03:15;13.27;;;4.07;;
41480;SDS011;27217;51.220;5.308;2023-03-14T05:05:42;9.00;;;4.47;;
41480;SDS011;27217;51.220;5.308;2023-03-14T05:08:09;13.77;;;3.53;;
41480;SDS011;27217;51.220;5.308;2023-03-14T05:10:35;15.02;;;4.05;;
41480;SDS011;27217;51.220;5.308;2023-03-14T05:13:01;13.27;;;3.67;;
41480;SDS011;27217;51.220;5.308;2023-03-14T05:15:27;9.27;;;3.20;;
41480;SDS011;27217;51.220;5.308;2023-03-14T05:17:53;10.38;;;2.70;;
41480;SDS011;27217;51.220;5.308;2023-03-14T05:20:19;14.77;;;3.55;;
41480;SDS011;27217;51.220;5.308;2023-03-14T05:22:46;9.82;;;3.05;;
41480;SDS011;27217;51.220;5.308;2023-03-14T05:25:12;18.75;;;4.15;;
41480;SDS011;27217;51.220;5.308;2023-03-14T05:27:38;10.50;;;3.72;;
41480;SDS011;27217;51.220;5.308;2023-03-14T05:30:04;14.45;;;4.28;;
41480;SDS011;27217;51.220;5.308;2023-03-14T05:32:30;12.00;;;3.13;;
41480;SDS011;27217;51.220;5.308;2023-03-14T05:34:57;11.57;;;3.67;;
41480;SDS011;27217;51.220;5.308;2023-03-14T05:37:24;20.25;;;3.63;;
41480;SDS011;27217;51.220;5.308;2023-03-14T05:39:51;10.30;;;3.85;;
41480;SDS011;27217;51.220;5.308;2023-03-14T05:42:17;14.02;;;4.47;;
41480;SDS011;27217;51.220;5.308;2023-03-14T05:44:43;10.75;;;3.75;;
41480;SDS011;27217;51.220;5.308;2023-03-14T05:47:09;15.57;;;4.47;;
41480;SDS011;27217;51.220;5.308;2023-03-14T05:49:35;8.02;;;3.25;;
41480;SDS011;27217;51.220;5.308;2023-03-14T05:52:01;10.98;;;3.90;;
41480;SDS011;27217;51.220;5.308;2023-03-14T05:54:27;7.97;;;3.80;;
41480;SDS011;27217;51.220;5.308;2023-03-14T05:56:53;16.05;;;4.50;;
41480;SDS011;27217;51.220;5.308;2023-03-14T05:59:19;13.90;;;4.93;;
41480;SDS011;27217;51.220;5.308;2023-03-14T06:01:48;11.65;;;5.35;;
41480;SDS011;27217;51.220;5.308;2023-03-14T06:04:13;14.10;;;4.97;;
41480;SDS011;27217;51.220;5.308;2023-03-14T06:06:39;16.55;;;5.32;;
41480;SDS011;27217;51.220;5.308;2023-03-14T06:09:05;11.13;;;4.47;;
41480;SDS011;27217;51.220;5.308;2023-03-14T06:11:31;23.50;;;5.93;;
41480;SDS011;27217;51.220;5.308;2023-03-14T06:13:57;13.00;;;5.53;;
41480;SDS011;27217;51.220;5.308;2023-03-14T06:16:22;13.93;;;5.40;;
41480;SDS011;27217;51.220;5.308;2023-03-14T06:18:48;10.38;;;5.45;;
41480;SDS011;27217;51.220;5.308;2023-03-14T06:21:15;16.48;;;5.03;;
41480;SDS011;27217;51.220;5.308;2023-03-14T06:23:40;15.48;;;4.78;;
41480;SDS011;27217;51.220;5.308;2023-03-14T06:26:07;12.18;;;5.05;;
41480;SDS011;27217;51.220;5.308;2023-03-14T06:28:32;11.60;;;3.60;;
41480;SDS011;27217;51.220;5.308;2023-03-14T06:30:59;11.40;;;4.13;;
41480;SDS011;27217;51.220;5.308;2023-03-14T06:33:25;10.13;;;4.43;;
41480;SDS011;27217;51.220;5.308;2023-03-14T06:35:51;14.32;;;3.88;;
41480;SDS011;27217;51.220;5.308;2023-03-14T06:38:18;12.80;;;3.63;;
41480;SDS011;27217;51.220;5.308;2023-03-14T06:40:44;13.30;;;3.80;;
41480;SDS011;27217;51.220;5.308;2023-03-14T06:43:10;10.48;;;3.80;;
41480;SDS011;27217;51.220;5.308;2023-03-14T06:45:36;8.98;;;3.72;;
41480;SDS011;27217;51.220;5.308;2023-03-14T06:48:02;11.80;;;4.43;;
41480;SDS011;27217;51.220;5.308;2023-03-14T06:50:28;10.90;;;3.65;;
41480;SDS011;27217;51.220;5.308;2023-03-14T06:52:54;6.90;;;3.15;;
41480;SDS011;27217;51.220;5.308;2023-03-14T06:55:20;6.22;;;3.28;;
41480;SDS011;27217;51.220;5.308;2023-03-14T06:57:46;9.27;;;3.60;;
41480;SDS011;27217;51.220;5.308;2023-03-14T07:00:12;10.40;;;3.38;;
41480;SDS011;27217;51.220;5.308;2023-03-14T07:02:39;8.38;;;2.90;;
41480;SDS011;27217;51.220;5.308;2023-03-14T07:05:05;7.00;;;2.40;;
41480;SDS011;27217;51.220;5.308;2023-03-14T07:07:32;8.45;;;2.53;;
41480;SDS011;27217;51.220;5.308;2023-03-14T07:09:58;8.48;;;2.80;;
41480;SDS011;27217;51.220;5.308;2023-03-14T07:12:24;11.38;;;2.67;;
41480;SDS011;27217;51.220;5.308;2023-03-14T07:14:49;9.43;;;3.92;;
41480;SDS011;27217;51.220;5.308;2023-03-14T07:17:16;8.23;;;2.72;;
41480;SDS011;27217;51.220;5.308;2023-03-14T07:19:41;4.90;;;2.22;;
41480;SDS011;27217;51.220;5.308;2023-03-14T07:22:07;3.55;;;1.88;;
41480;SDS011;27217;51.220;5.308;2023-03-14T07:24:33;0.00;;;0.00;;
41480;SDS011;27217;51.220;5.308;2023-03-14T07:26:59;0.00;;;0.00;;
41480;SDS011;27217;51.220;5.308;2023-03-14T07:29:25;1.85;;;0.65;;
41480;SDS011;27217;51.220;5.308;2023-03-14T07:31:50;0.65;;;0.40;;
41480;SDS011;27217;51.220;5.308;2023-03-14T07:34:16;0.10;;;0.10;;
41480;SDS011;27217;51.220;5.308;2023-03-14T07:36:42;0.20;;;0.20;;
41480;SDS011;27217;51.220;5.308;2023-03-14T07:39:08;0.00;;;0.00;;
41480;SDS011;27217;51.220;5.308;2023-03-14T07:41:35;0.00;;;0.00;;
41480;SDS011;27217;51.220;5.308;2023-03-14T07:44:07;0.00;;;0.00;;
41480;SDS011;27217;51.220;5.308;2023-03-14T07:46:33;0.38;;;0.35;;
41480;SDS011;27217;51.220;5.308;2023-03-14T07:48:58;1.77;;;1.65;;
41480;SDS011;27217;51.220;5.308;2023-03-14T07:51:26;0.00;;;0.00;;
41480;SDS011;27217;51.220;5.308;2023-03-14T07:53:52;0.00;;;0.00;;
41480;SDS011;27217;51.220;5.308;2023-03-14T07:56:18;0.00;;;0.00;;
41480;SDS011;27217;51.220;5.308;2023-03-14T07:58:44;0.15;;;0.15;;
41480;SDS011;27217;51.220;5.308;2023-03-14T08:01:17;0.00;;;0.00;;
41480;SDS011;27217;51.220;5.308;2023-03-14T08:03:43;0.00;;;0.00;;
41480;SDS011;27217;51.220;5.308;2023-03-14T08:06:16;0.00;;;0.00;;
41480;SDS011;27217;51.220;5.308;2023-03-14T08:08:41;0.00;;;0.00;;
41480;SDS011;27217;51.220;5.308;2023-03-14T08:11:07;0.00;;;0.00;;
41480;SDS011;27217;51.220;5.308;2023-03-14T08:13:34;0.00;;;0.00;;
41480;SDS011;27217;51.220;5.308;2023-03-14T08:16:00;0.00;;;0.00;;
41480;SDS011;27217;51.220;5.308;2023-03-14T08:18:26;0.00;;;0.00;;
41480;SDS011;27217;51.220;5.308;2023-03-14T08:20:51;0.00;;;0.00;;
41480;SDS011;27217;51.220;5.308;2023-03-14T08:23:18;0.00;;;0.00;;
41480;SDS011;27217;51.220;5.308;2023-03-14T08:25:44;0.00;;;0.00;;
41480;SDS011;27217;51.220;5.308;2023-03-14T08:28:10;0.00;;;0.00;;
41480;SDS011;27217;51.220;5.308;2023-03-14T08:30:36;0.00;;;0.00;;
41480;SDS011;27217;51.220;5.308;2023-03-14T08:33:02;0.00;;;0.00;;
41480;SDS011;27217;51.220;5.308;2023-03-14T08:35:27;0.10;;;0.10;;
41480;SDS011;27217;51.220;5.308;2023-03-14T08:37:53;0.03;;;0.03;;
41480;SDS011;27217;51.220;5.308;2023-03-14T08:40:19;0.00;;;0.00;;
41480;SDS011;27217;51.220;5.308;2023-03-14T08:42:45;0.00;;;0.00;;
41480;SDS011;27217;51.220;5.308;2023-03-14T08:45:11;0.10;;;0.10;;
41480;SDS011;27217;51.220;5.308;2023-03-14T08:47:39;0.00;;;0.00;;
41480;SDS011;27217;51.220;5.308;2023-03-14T08:50:06;0.00;;;0.00;;
41480;SDS011;27217;51.220;5.308;2023-03-14T08:52:32;0.15;;;0.15;;
41480;SDS011;27217;51.220;5.308;2023-03-14T08:54:59;0.00;;;0.00;;
41480;SDS011;27217;51.220;5.308;2023-03-14T08:57:25;0.10;;;0.10;;
41480;SDS011;27217;51.220;5.308;2023-03-14T08:59:54;0.10;;;0.10;;
41480;SDS011;27217;51.220;5.308;2023-03-14T09:02:20;0.00;;;0.00;;
41480;SDS011;27217;51.220;5.308;2023-03-14T09:04:51;4.20;;;2.92;;
41480;SDS011;27217;51.220;5.308;2023-03-14T09:07:17;0.10;;;0.10;;
41480;SDS011;27217;51.220;5.308;2023-03-14T09:09:44;0.00;;;0.00;;
41480;SDS011;27217;51.220;5.308;2023-03-14T09:12:10;2.00;;;0.80;;
41480;SDS011;27217;51.220;5.308;2023-03-14T09:14:36;0.00;;;0.00;;
41480;SDS011;27217;51.220;5.308;2023-03-14T09:17:02;0.00;;;0.00;;
41480;SDS011;27217;51.220;5.308;2023-03-14T09:19:29;0.00;;;0.00;;
41480;SDS011;27217;51.220;5.308;2023-03-14T09:21:55;0.00;;;0.00;;
41480;SDS011;27217;51.220;5.308;2023-03-14T09:24:21;0.00;;;0.00;;
41480;SDS011;27217;51.220;5.308;2023-03-14T09:26:47;0.00;;;0.00;;
41480;SDS011;27217;51.220;5.308;2023-03-14T09:29:13;0.00;;;0.00;;
41480;SDS011;27217;51.220;5.308;2023-03-14T09:31:38;0.00;;;0.00;;
41480;SDS011;27217;51.220;5.308;2023-03-14T09:34:04;1.10;;;1.00;;
41480;SDS011;27217;51.220;5.308;2023-03-14T09:36:30;0.00;;;0.00;;
41480;SDS011;27217;51.220;5.308;2023-03-14T09:38:56;0.55;;;0.55;;
41480;SDS011;27217;51.220;5.308;2023-03-14T09:41:29;0.00;;;0.00;;
41480;SDS011;27217;51.220;5.308;2023-03-14T09:46:27;0.00;;;0.00;;
41480;SDS011;27217;51.220;5.308;2023-03-14T09:48:55;0.00;;;0.00;;
41480;SDS011;27217;51.220;5.308;2023-03-14T09:51:21;0.00;;;0.00;;
41480;SDS011;27217;51.220;5.308;2023-03-14T09:53:49;0.00;;;0.00;;
41480;SDS011;27217;51.220;5.308;2023-03-14T09:56:23;0.00;;;0.00;;
41480;SDS011;27217;51.220;5.308;2023-03-14T09:58:56;0.00;;;0.00;;
41480;SDS011;27217;51.220;5.308;2023-03-14T10:01:29;0.00;;;0.00;;
41480;SDS011;27217;51.220;5.308;2023-03-14T10:03:58;0.00;;;0.00;;
41480;SDS011;27217;51.220;5.308;2023-03-14T10:06:28;0.00;;;0.00;;
41480;SDS011;27217;51.220;5.308;2023-03-14T10:08:55;0.00;;;0.00;;
41480;SDS011;27217;51.220;5.308;2023-03-14T10:11:22;2.10;;;1.75;;
41480;SDS011;27217;51.220;5.308;2023-03-14T10:13:50;0.00;;;0.00;;
41480;SDS011;27217;51.220;5.308;2023-03-14T10:16:34;0.15;;;0.15;;
41480;SDS011;27217;51.220;5.308;2023-03-14T10:19:11;0.20;;;0.20;;
41480;SDS011;27217;51.220;5.308;2023-03-14T10:21:50;0.00;;;0.00;;
41480;SDS011;27217;51.220;5.308;2023-03-14T10:24:33;0.05;;;0.05;;
41480;SDS011;27217;51.220;5.308;2023-03-14T10:27:04;0.10;;;0.10;;
41480;SDS011;27217;51.220;5.308;2023-03-14T10:29:51;0.00;;;0.00;;
41480;SDS011;27217;51.220;5.308;2023-03-14T10:32:19;0.10;;;0.10;;
41480;SDS011;27217;51.220;5.308;2023-03-14T10:34:46;0.10;;;0.10;;
41480;SDS011;27217;51.220;5.308;2023-03-14T10:37:47;0.00;;;0.00;;
41480;SDS011;27217;51.220;5.308;2023-03-14T10:40:16;0.10;;;0.10;;
41480;SDS011;27217;51.220;5.308;2023-03-14T10:42:44;0.00;;;0.00;;
41480;SDS011;27217;51.220;5.308;2023-03-14T10:47:52;0.10;;;0.10;;
41480;SDS011;27217;51.220;5.308;2023-03-14T10:50:22;0.00;;;0.00;;
41480;SDS011;27217;51.220;5.308;2023-03-14T10:52:54;0.10;;;0.10;;
41480;SDS011;27217;51.220;5.308;2023-03-14T10:55:20;0.00;;;0.00;;
41480;SDS011;27217;51.220;5.308;2023-03-14T10:57:48;0.00;;;0.00;;
41480;SDS011;27217;51.220;5.308;2023-03-14T11:05:21;0.00;;;0.00;;
41480;SDS011;27217;51.220;5.308;2023-03-14T11:08:15;0.00;;;0.00;;
41480;SDS011;27217;51.220;5.308;2023-03-14T11:10:48;0.00;;;0.00;;
41480;SDS011;27217;51.220;5.308;2023-03-14T11:13:25;0.00;;;0.00;;
41480;SDS011;27217;51.220;5.308;2023-03-14T11:19:25;0.00;;;0.00;;
41480;SDS011;27217;51.220;5.308;2023-03-14T11:27:22;0.00;;;0.00;;
41480;SDS011;27217;51.220;5.308;2023-03-14T11:30:34;1.85;;;0.57;;
41480;SDS011;27217;51.220;5.308;2023-03-14T11:33:16;12.45;;;2.10;;
41480;SDS011;27217;51.220;5.308;2023-03-14T11:36:29;11.90;;;1.13;;
41480;SDS011;27217;51.220;5.308;2023-03-14T11:38:46;5.47;;;1.63;;
41480;SDS011;27217;51.220;5.308;2023-03-14T11:41:19;7.70;;;1.67;;
41480;SDS011;27217;51.220;5.308;2023-03-14T11:44:04;6.68;;;1.60;;
41480;SDS011;27217;51.220;5.308;2023-03-14T11:49:30;11.00;;;2.22;;
41480;SDS011;27217;51.220;5.308;2023-03-14T11:52:05;10.90;;;1.65;;
41480;SDS011;27217;51.220;5.308;2023-03-14T11:57:26;11.00;;;2.60;;
41480;SDS011;27217;51.220;5.308;2023-03-14T12:10:39;16.52;;;3.08;;
41480;SDS011;27217;51.220;5.308;2023-03-14T12:13:08;9.25;;;1.88;;
41480;SDS011;27217;51.220;5.308;2023-03-14T12:15:39;16.15;;;2.63;;
41480;SDS011;27217;51.220;5.308;2023-03-14T12:20:55;18.30;;;2.38;;
41480;SDS011;27217;51.220;5.308;2023-03-14T12:23:23;22.27;;;2.75;;
41480;SDS011;27217;51.220;5.308;2023-03-14T12:28:39;19.40;;;2.50;;
41480;SDS011;27217;51.220;5.308;2023-03-14T12:34:42;16.38;;;3.33;;
41480;SDS011;27217;51.220;5.308;2023-03-14T12:39:35;21.85;;;3.47;;
41480;SDS011;27217;51.220;5.308;2023-03-14T12:44:53;18.55;;;2.60;;
41480;SDS011;27217;51.220;5.308;2023-03-14T12:47:51;16.70;;;2.72;;
41480;SDS011;27217;51.220;5.308;2023-03-14T12:50:26;11.05;;;1.95;;
41480;SDS011;27217;51.220;5.308;2023-03-14T12:56:18;12.02;;;2.97;;
41480;SDS011;27217;51.220;5.308;2023-03-14T12:59:03;13.60;;;2.10;;
41480;SDS011;27217;51.220;5.308;2023-03-14T13:04:29;15.32;;;2.25;;
41480;SDS011;27217;51.220;5.308;2023-03-14T13:07:11;18.38;;;3.38;;
41480;SDS011;27217;51.220;5.308;2023-03-14T13:09:55;14.98;;;2.53;;
41480;SDS011;27217;51.220;5.308;2023-03-14T13:12:27;16.83;;;3.30;;
41480;SDS011;27217;51.220;5.308;2023-03-14T13:14:57;21.35;;;2.95;;
41480;SDS011;27217;51.220;5.308;2023-03-14T13:17:29;14.93;;;2.50;;
41480;SDS011;27217;51.220;5.308;2023-03-14T13:19:58;12.32;;;2.38;;
41480;SDS011;27217;51.220;5.308;2023-03-14T13:22:35;17.63;;;2.80;;
41480;SDS011;27217;51.220;5.308;2023-03-14T13:25:05;21.38;;;2.78;;
41480;SDS011;27217;51.220;5.308;2023-03-14T13:27:34;23.85;;;3.10;;
41480;SDS011;27217;51.220;5.308;2023-03-14T13:30:20;18.75;;;3.08;;
41480;SDS011;27217;51.220;5.308;2023-03-14T13:32:50;11.45;;;2.30;;
41480;SDS011;27217;51.220;5.308;2023-03-14T13:35:18;16.88;;;2.20;;
41480;SDS011;27217;51.220;5.308;2023-03-14T13:37:46;11.40;;;2.40;;
41480;SDS011;27217;51.220;5.308;2023-03-14T13:40:20;11.93;;;2.15;;
41480;SDS011;27217;51.220;5.308;2023-03-14T13:43:19;13.75;;;2.17;;
41480;SDS011;27217;51.220;5.308;2023-03-14T13:45:56;13.70;;;1.95;;
41480;SDS011;27217;51.220;5.308;2023-03-14T13:48:26;9.75;;;1.63;;
41480;SDS011;27217;51.220;5.308;2023-03-14T13:51:07;16.40;;;2.22;;
41480;SDS011;27217;51.220;5.308;2023-03-14T13:56:37;13.60;;;1.83;;
41480;SDS011;27217;51.220;5.308;2023-03-14T13:59:03;13.90;;;2.05;;
41480;SDS011;27217;51.220;5.308;2023-03-14T14:01:29;16.45;;;1.80;;
41480;SDS011;27217;51.220;5.308;2023-03-14T14:04:14;10.77;;;1.83;;
41480;SDS011;27217;51.220;5.308;2023-03-14T14:06:44;15.02;;;2.53;;
41480;SDS011;27217;51.220;5.308;2023-03-14T14:09:16;8.27;;;1.23;;
41480;SDS011;27217;51.220;5.308;2023-03-14T14:12:01;10.90;;;2.50;;
41480;SDS011;27217;51.220;5.308;2023-03-14T14:17:13;8.90;;;1.27;;
41480;SDS011;27217;51.220;5.308;2023-03-14T14:19:41;10.18;;;2.00;;
41480;SDS011;27217;51.220;5.308;2023-03-14T14:22:09;9.05;;;1.70;;
41480;SDS011;27217;51.220;5.308;2023-03-14T14:24:35;11.90;;;2.22;;
41480;SDS011;27217;51.220;5.308;2023-03-14T14:29:42;7.00;;;2.17;;
41480;SDS011;27217;51.220;5.308;2023-03-14T14:37:17;12.75;;;2.15;;
41480;SDS011;27217;51.220;5.308;2023-03-14T14:39:57;29.48;;;2.03;;
41480;SDS011;27217;51.220;5.308;2023-03-14T14:42:26;12.82;;;2.22;;
41480;SDS011;27217;51.220;5.308;2023-03-14T14:44:55;10.65;;;1.55;;
41480;SDS011;27217;51.220;5.308;2023-03-14T14:47:22;3.95;;;1.30;;
41480;SDS011;27217;51.220;5.308;2023-03-14T14:49:51;14.95;;;1.98;;
41480;SDS011;27217;51.220;5.308;2023-03-14T14:57:20;12.35;;;1.80;;
41480;SDS011;27217;51.220;5.308;2023-03-14T14:59:50;8.27;;;1.70;;
41480;SDS011;27217;51.220;5.308;2023-03-14T15:02:35;5.30;;;1.55;;
41480;SDS011;27217;51.220;5.308;2023-03-14T15:05:19;6.95;;;1.65;;
41480;SDS011;27217;51.220;5.308;2023-03-14T15:07:47;6.35;;;1.73;;
41480;SDS011;27217;51.220;5.308;2023-03-14T15:10:17;10.57;;;1.98;;
41480;SDS011;27217;51.220;5.308;2023-03-14T15:12:44;13.02;;;1.33;;
41480;SDS011;27217;51.220;5.308;2023-03-14T15:15:12;11.18;;;2.20;;
41480;SDS011;27217;51.220;5.308;2023-03-14T15:17:38;11.35;;;2.38;;
41480;SDS011;27217;51.220;5.308;2023-03-14T15:20:04;13.48;;;2.25;;
41480;SDS011;27217;51.220;5.308;2023-03-14T15:22:32;13.00;;;2.10;;
41480;SDS011;27217;51.220;5.308;2023-03-14T15:24:58;15.23;;;1.75;;
41480;SDS011;27217;51.220;5.308;2023-03-14T15:27:24;14.60;;;2.35;;
41480;SDS011;27217;51.220;5.308;2023-03-14T15:29:50;10.95;;;1.90;;
41480;SDS011;27217;51.220;5.308;2023-03-14T15:32:16;8.63;;;2.63;;
41480;SDS011;27217;51.220;5.308;2023-03-14T15:34:43;16.35;;;1.75;;
41480;SDS011;27217;51.220;5.308;2023-03-14T15:37:12;11.55;;;1.75;;
41480;SDS011;27217;51.220;5.308;2023-03-14T15:39:41;13.20;;;1.88;;
41480;SDS011;27217;51.220;5.308;2023-03-14T15:42:07;7.97;;;1.45;;
41480;SDS011;27217;51.220;5.308;2023-03-14T15:44:33;9.57;;;1.42;;
41480;SDS011;27217;51.220;5.308;2023-03-14T15:46:59;9.63;;;1.30;;
41480;SDS011;27217;51.220;5.308;2023-03-14T15:49:26;14.00;;;2.45;;
41480;SDS011;27217;51.220;5.308;2023-03-14T15:51:52;10.73;;;1.77;;
41480;SDS011;27217;51.220;5.308;2023-03-14T15:54:18;7.88;;;1.80;;
41480;SDS011;27217;51.220;5.308;2023-03-14T15:56:44;11.00;;;1.40;;
41480;SDS011;27217;51.220;5.308;2023-03-14T15:59:10;10.40;;;2.22;;
41480;SDS011;27217;51.220;5.308;2023-03-14T16:01:36;13.48;;;2.13;;
41480;SDS011;27217;51.220;5.308;2023-03-14T16:04:02;7.13;;;1.75;;
41480;SDS011;27217;51.220;5.308;2023-03-14T16:06:28;8.48;;;1.45;;
41480;SDS011;27217;51.220;5.308;2023-03-14T16:08:56;7.10;;;1.75;;
41480;SDS011;27217;51.220;5.308;2023-03-14T16:11:23;10.80;;;1.80;;
41480;SDS011;27217;51.220;5.308;2023-03-14T16:13:49;10.50;;;1.77;;
41480;SDS011;27217;51.220;5.308;2023-03-14T16:16:15;11.98;;;2.45;;
41480;SDS011;27217;51.220;5.308;2023-03-14T16:18:41;19.75;;;2.47;;